Time;durP1;ratioP1;P1;durP2;ratioP2;P2;SDS_P1;SDS_P2;PMS_P1;PMS_P2;Temp;Humidity;BMP_temperature;BMP_pressure;BME280_temperature;BME280_humidity;BME280_pressure;Samples;Min_cycle;Max_cycle;Signal;HPM_P1;HPM_P2
2021/08/10 00:01:11;;;;;;;6.45;2.58;;;;;;;;;;4914288;29;20082;-78
2021/08/10 00:03:39;;;;;;;4.88;2.85;;;;;;;;;;4914328;29;20047;-78
2021/08/10 00:06:06;;;;;;;6.85;2.80;;;;;;;;;;4930870;29;20058;-78
2021/08/10 00:08:33;;;;;;;5.07;2.40;;;;;;;;;;4922412;29;20134;-78
2021/08/10 00:11:00;;;;;;;5.90;2.83;;;;;;;;;;4907931;29;20482;-78
2021/08/10 00:13:27;;;;;;;4.72;3.25;;;;;;;;;;4927960;29;20090;-78
2021/08/10 00:15:54;;;;;;;5.85;2.72;;;;;;;;;;4924024;29;20090;-78
2021/08/10 00:18:22;;;;;;;5.38;2.88;;;;;;;;;;4928924;29;20135;-78
2021/08/10 00:20:50;;;;;;;9.57;2.88;;;;;;;;;;4929589;29;20046;-77
2021/08/10 00:23:18;;;;;;;7.68;3.03;;;;;;;;;;4930159;29;20429;-77
2021/08/10 00:25:46;;;;;;;7.78;3.15;;;;;;;;;;4930351;29;20224;-77
2021/08/10 00:28:13;;;;;;;3.53;2.50;;;;;;;;;;4930622;29;20054;-77
2021/08/10 00:30:42;;;;;;;7.50;3.28;;;;;;;;;;4927460;29;20086;-77
2021/08/10 00:33:09;;;;;;;4.82;2.88;;;;;;;;;;4930252;29;20039;-77
2021/08/10 00:35:37;;;;;;;5.70;3.08;;;;;;;;;;4927332;29;20748;-77
2021/08/10 00:38:04;;;;;;;7.63;3.25;;;;;;;;;;4931098;29;20139;-77
2021/08/10 00:40:32;;;;;;;7.22;3.47;;;;;;;;;;4930316;29;20091;-77
2021/08/10 00:42:59;;;;;;;8.00;3.28;;;;;;;;;;4930832;29;20443;-77
2021/08/10 00:45:26;;;;;;;7.80;3.00;;;;;;;;;;4927356;29;20048;-77
2021/08/10 00:47:53;;;;;;;9.52;3.20;;;;;;;;;;4915656;29;20056;-77
2021/08/10 00:50:22;;;;;;;8.40;3.33;;;;;;;;;;4930782;29;20471;-77
2021/08/10 00:52:49;;;;;;;6.22;3.13;;;;;;;;;;4923614;29;20555;-77
2021/08/10 00:55:16;;;;;;;6.15;3.85;;;;;;;;;;4927964;29;20063;-77
2021/08/10 00:57:44;;;;;;;7.70;3.65;;;;;;;;;;4926633;29;20089;-77
2021/08/10 01:00:11;;;;;;;8.68;3.50;;;;;;;;;;4926782;29;20095;-77
2021/08/10 01:02:38;;;;;;;9.20;3.70;;;;;;;;;;4927909;29;20130;-77
2021/08/10 01:05:06;;;;;;;7.85;3.63;;;;;;;;;;4930591;29;20742;-77
2021/08/10 01:07:33;;;;;;;11.27;3.95;;;;;;;;;;4929591;29;20474;-77
2021/08/10 01:10:06;;;;;;;9.30;3.60;;;;;;;;;;4915424;29;20127;-77
2021/08/10 01:12:39;;;;;;;8.15;3.50;;;;;;;;;;4933280;29;20452;-77
2021/08/10 01:15:14;;;;;;;5.53;3.67;;;;;;;;;;4933746;29;20158;-77
2021/08/10 01:17:41;;;;;;;5.68;3.70;;;;;;;;;;4931181;29;20051;-77
2021/08/10 01:20:18;;;;;;;12.60;4.03;;;;;;;;;;4933552;29;20131;-77
2021/08/10 01:22:47;;;;;;;7.35;3.95;;;;;;;;;;4928578;29;20059;-77
2021/08/10 01:25:15;;;;;;;6.57;3.85;;;;;;;;;;4933857;29;20111;-77
2021/08/10 01:27:44;;;;;;;8.32;3.13;;;;;;;;;;4934250;29;20083;-77
2021/08/10 01:30:13;;;;;;;6.05;3.75;;;;;;;;;;4929111;29;20059;-76
2021/08/10 01:32:43;;;;;;;8.32;3.80;;;;;;;;;;4932949;29;20103;-77
2021/08/10 01:35:10;;;;;;;7.95;3.60;;;;;;;;;;4932007;29;20055;-77
2021/08/10 01:37:38;;;;;;;9.20;4.03;;;;;;;;;;4929552;29;20390;-77
2021/08/10 01:40:07;;;;;;;8.00;3.65;;;;;;;;;;4914945;29;20056;-77
2021/08/10 01:42:36;;;;;;;10.40;3.97;;;;;;;;;;4926118;29;20449;-77
2021/08/10 01:45:05;;;;;;;6.53;3.72;;;;;;;;;;4933238;29;20072;-77
2021/08/10 01:47:33;;;;;;;9.88;4.00;;;;;;;;;;4918257;29;20110;-77
2021/08/10 01:50:01;;;;;;;8.52;3.72;;;;;;;;;;4933170;29;20158;-78
2021/08/10 01:52:29;;;;;;;7.82;3.97;;;;;;;;;;4932552;29;20523;-77
2021/08/10 01:54:56;;;;;;;6.75;3.08;;;;;;;;;;4920976;29;20126;-77
2021/08/10 01:57:25;;;;;;;6.88;3.50;;;;;;;;;;4933195;29;20052;-77
2021/08/10 01:59:53;;;;;;;6.70;3.40;;;;;;;;;;4913784;29;20151;-78
2021/08/10 02:02:20;;;;;;;8.90;3.45;;;;;;;;;;4925769;29;20054;-77
2021/08/10 02:04:49;;;;;;;7.05;3.38;;;;;;;;;;4932221;29;20059;-78
2021/08/10 02:07:16;;;;;;;7.78;3.35;;;;;;;;;;4933446;29;20155;-77
2021/08/10 02:09:45;;;;;;;7.75;3.75;;;;;;;;;;4932468;29;20135;-77
2021/08/10 02:12:13;;;;;;;8.85;3.53;;;;;;;;;;4929522;29;20087;-78
2021/08/10 02:14:40;;;;;;;13.27;3.90;;;;;;;;;;4921331;29;20047;-77
2021/08/10 02:17:08;;;;;;;13.20;4.13;;;;;;;;;;4929611;29;20453;-78
2021/08/10 02:19:35;;;;;;;8.02;3.70;;;;;;;;;;4931233;29;20047;-77
2021/08/10 02:22:07;;;;;;;11.13;3.95;;;;;;;;;;4930736;29;20432;-77
2021/08/10 02:25:12;;;;;;;11.15;4.28;;;;;;;;;;4930121;29;20167;-76
2021/08/10 02:27:53;;;;;;;14.63;5.97;;;;;;;;;;4853334;29;20052;-77
2021/08/10 02:30:22;;;;;;;5.72;3.50;;;;;;;;;;4854168;29;20925;-77
2021/08/10 02:32:49;;;;;;;9.65;4.00;;;;;;;;;;4898904;29;20140;-77
2021/08/10 02:35:22;;;;;;;7.15;3.75;;;;;;;;;;4931051;29;20419;-77
2021/08/10 02:37:49;;;;;;;10.63;3.67;;;;;;;;;;4929621;29;20151;-78
2021/08/10 02:40:18;;;;;;;9.75;3.70;;;;;;;;;;4931752;29;20138;-77
2021/08/10 02:42:56;;;;;;;5.82;3.63;;;;;;;;;;4930445;29;20200;-77
2021/08/10 02:45:24;;;;;;;10.00;4.50;;;;;;;;;;4928816;29;20143;-78
2021/08/10 02:47:55;;;;;;;10.85;3.88;;;;;;;;;;4942872;29;20052;-76
2021/08/10 02:50:23;;;;;;;11.05;3.58;;;;;;;;;;4930269;29;20448;-78
2021/08/10 02:52:50;;;;;;;8.43;3.70;;;;;;;;;;4919591;29;20134;-77
2021/08/10 02:55:19;;;;;;;7.75;3.88;;;;;;;;;;4916395;29;20523;-77
2021/08/10 02:58:06;;;;;;;10.43;3.70;;;;;;;;;;4929708;29;20083;-78
2021/08/10 03:00:36;;;;;;;10.38;3.65;;;;;;;;;;4910678;29;20489;-77
2021/08/10 03:03:08;;;;;;;10.65;4.95;;;;;;;;;;4929643;29;20050;-77
2021/08/10 03:05:36;;;;;;;8.40;3.28;;;;;;;;;;4921690;29;20067;-78
2021/08/10 03:08:07;;;;;;;6.95;3.83;;;;;;;;;;4932542;29;20047;-77
2021/08/10 03:10:34;;;;;;;8.32;3.33;;;;;;;;;;4914864;29;20047;-77
2021/08/10 03:13:03;;;;;;;9.95;3.67;;;;;;;;;;4922329;29;20098;-78
2021/08/10 03:15:33;;;;;;;8.05;3.33;;;;;;;;;;4919600;29;20146;-77
2021/08/10 03:18:03;;;;;;;7.30;3.90;;;;;;;;;;4923661;29;20055;-77
2021/08/10 03:20:32;;;;;;;14.55;3.90;;;;;;;;;;4926399;29;20523;-77
2021/08/10 03:23:00;;;;;;;12.70;3.80;;;;;;;;;;4921410;29;20048;-77
2021/08/10 03:25:28;;;;;;;6.53;3.90;;;;;;;;;;4912194;29;20080;-77
2021/08/10 03:27:56;;;;;;;7.25;4.10;;;;;;;;;;4920040;29;20079;-77
2021/08/10 03:30:23;;;;;;;9.00;3.63;;;;;;;;;;4912069;29;20048;-77
2021/08/10 03:32:51;;;;;;;7.20;3.75;;;;;;;;;;4909347;29;20417;-77
2021/08/10 03:35:21;;;;;;;11.32;4.05;;;;;;;;;;4924344;29;20767;-77
2021/08/10 03:37:49;;;;;;;8.07;3.75;;;;;;;;;;4945492;29;20134;-77
2021/08/10 03:40:16;;;;;;;11.48;3.38;;;;;;;;;;4930352;29;20581;-77
2021/08/10 03:42:44;;;;;;;6.75;3.72;;;;;;;;;;4926504;29;20048;-77
2021/08/10 03:45:11;;;;;;;6.63;3.63;;;;;;;;;;4930867;29;20052;-77
2021/08/10 03:47:39;;;;;;;6.70;4.10;;;;;;;;;;4930907;29;20048;-77
2021/08/10 03:50:07;;;;;;;17.65;4.10;;;;;;;;;;4917537;29;20056;-77
2021/08/10 03:52:34;;;;;;;7.13;3.60;;;;;;;;;;4929837;29;20123;-77
2021/08/10 03:55:01;;;;;;;9.70;3.83;;;;;;;;;;4929395;29;20491;-77
2021/08/10 03:57:30;;;;;;;12.13;3.50;;;;;;;;;;4930876;29;20052;-77
2021/08/10 03:59:58;;;;;;;15.40;4.20;;;;;;;;;;4915342;29;20122;-77
2021/08/10 04:02:26;;;;;;;8.45;3.75;;;;;;;;;;4930373;29;20138;-77
2021/08/10 04:04:55;;;;;;;7.10;3.70;;;;;;;;;;4929980;29;20043;-77
2021/08/10 04:07:22;;;;;;;9.43;3.50;;;;;;;;;;4930166;29;20060;-77
2021/08/10 04:09:50;;;;;;;10.77;3.80;;;;;;;;;;4920370;29;20394;-77
2021/08/10 04:12:17;;;;;;;10.73;4.03;;;;;;;;;;4929409;29;20138;-77
2021/08/10 04:14:45;;;;;;;7.72;3.67;;;;;;;;;;4925805;29;20139;-77
2021/08/10 04:17:12;;;;;;;11.63;3.72;;;;;;;;;;4925017;29;20056;-77
2021/08/10 04:19:48;;;;;;;6.90;3.17;;;;;;;;;;4919565;29;20135;-77
2021/08/10 04:22:17;;;;;;;4.80;3.50;;;;;;;;;;4929123;29;20052;-77
2021/08/10 04:24:45;;;;;;;10.50;3.70;;;;;;;;;;4894987;29;20482;-77
2021/08/10 04:27:13;;;;;;;9.73;3.45;;;;;;;;;;4929532;29;20075;-77
2021/08/10 04:29:40;;;;;;;8.68;3.88;;;;;;;;;;4930375;29;20378;-77
2021/08/10 04:32:08;;;;;;;9.15;3.55;;;;;;;;;;4930194;29;20069;-77
2021/08/10 04:34:38;;;;;;;9.30;3.63;;;;;;;;;;4930644;29;20445;-78
2021/08/10 04:37:05;;;;;;;6.53;3.70;;;;;;;;;;4915592;29;20174;-77
2021/08/10 04:39:35;;;;;;;8.80;4.07;;;;;;;;;;4920197;29;20154;-77
2021/08/10 04:42:02;;;;;;;6.32;3.92;;;;;;;;;;4932872;29;20130;-77
2021/08/10 04:44:32;;;;;;;6.80;3.80;;;;;;;;;;4915686;29;20130;-77
2021/08/10 04:46:59;;;;;;;9.80;5.00;;;;;;;;;;4929274;29;20142;-78
2021/08/10 04:49:27;;;;;;;10.90;4.28;;;;;;;;;;4934361;29;20087;-77
2021/08/10 04:51:54;;;;;;;8.88;3.58;;;;;;;;;;4919637;29;20532;-78
2021/08/10 04:54:21;;;;;;;8.20;3.70;;;;;;;;;;4930030;29;20155;-80
2021/08/10 04:56:50;;;;;;;6.78;3.63;;;;;;;;;;4925440;29;20536;-79
2021/08/10 04:59:19;;;;;;;5.80;3.40;;;;;;;;;;4921261;29;20110;-79
2021/08/10 05:01:47;;;;;;;6.78;3.42;;;;;;;;;;4935154;29;20508;-80
2021/08/10 05:04:16;;;;;;;6.53;3.70;;;;;;;;;;4930044;29;20111;-83
2021/08/10 05:06:43;;;;;;;7.05;3.28;;;;;;;;;;4934775;29;20084;-79
2021/08/10 05:09:10;;;;;;;12.55;3.47;;;;;;;;;;4932650;29;20859;-77
2021/08/10 05:11:37;;;;;;;7.63;3.28;;;;;;;;;;4931898;29;20086;-79
2021/08/10 05:14:05;;;;;;;7.15;3.38;;;;;;;;;;4923942;29;20110;-77
2021/08/10 05:16:36;;;;;;;6.90;3.83;;;;;;;;;;4949945;29;20060;-83
2021/08/10 05:19:03;;;;;;;5.50;3.63;;;;;;;;;;4935804;29;20098;-81
2021/08/10 05:21:30;;;;;;;7.88;3.63;;;;;;;;;;4920272;29;20056;-87
2021/08/10 05:23:57;;;;;;;8.25;3.90;;;;;;;;;;4908784;29;20126;-85
2021/08/10 05:26:25;;;;;;;11.23;3.40;;;;;;;;;;4928008;29;20134;-85
2021/08/10 05:28:52;;;;;;;12.30;3.47;;;;;;;;;;4921766;29;20044;-88
2021/08/10 05:31:20;;;;;;;6.32;3.47;;;;;;;;;;4921472;29;20532;-79
2021/08/10 05:33:47;;;;;;;20.38;4.20;;;;;;;;;;4918323;29;20140;-80
2021/08/10 05:36:14;;;;;;;6.50;3.63;;;;;;;;;;4934280;29;20110;-82
2021/08/10 05:38:43;;;;;;;10.90;3.97;;;;;;;;;;4918257;29;20154;-82
2021/08/10 05:41:11;;;;;;;6.88;3.58;;;;;;;;;;4927679;29;20513;-82
2021/08/10 05:43:38;;;;;;;5.65;2.90;;;;;;;;;;4916754;29;20075;-82
2021/08/10 05:46:07;;;;;;;10.27;3.80;;;;;;;;;;4924301;29;20127;-82
2021/08/10 05:48:34;;;;;;;6.30;3.88;;;;;;;;;;4948690;29;20075;-82
2021/08/10 05:51:04;;;;;;;13.10;4.18;;;;;;;;;;4904266;29;20561;-82
2021/08/10 05:53:34;;;;;;;10.02;3.67;;;;;;;;;;4926500;29;20047;-82
2021/08/10 05:56:02;;;;;;;12.95;4.03;;;;;;;;;;4950460;29;20143;-82
2021/08/10 05:58:30;;;;;;;7.82;3.30;;;;;;;;;;4926051;29;20130;-82
2021/08/10 06:00:57;;;;;;;8.02;3.10;;;;;;;;;;4917639;29;20057;-82
2021/08/10 06:03:24;;;;;;;9.98;4.07;;;;;;;;;;4918647;29;20517;-82
2021/08/10 06:05:51;;;;;;;18.83;4.00;;;;;;;;;;4919914;29;20498;-82
2021/08/10 06:08:21;;;;;;;7.18;3.38;;;;;;;;;;4935280;29;20062;-82
2021/08/10 06:10:48;;;;;;;7.80;3.38;;;;;;;;;;4933817;29;20062;-82
2021/08/10 06:13:15;;;;;;;7.43;3.25;;;;;;;;;;4918684;29;20103;-82
2021/08/10 06:15:42;;;;;;;7.25;3.35;;;;;;;;;;4918286;29;20130;-82
2021/08/10 06:18:09;;;;;;;9.07;3.13;;;;;;;;;;4935505;29;20456;-82
2021/08/10 06:20:37;;;;;;;9.27;3.78;;;;;;;;;;4917825;29;20059;-82
2021/08/10 06:23:06;;;;;;;6.18;2.83;;;;;;;;;;4934648;29;20047;-82
2021/08/10 06:25:33;;;;;;;8.50;3.35;;;;;;;;;;4926804;29;20139;-82
2021/08/10 06:28:00;;;;;;;14.38;4.10;;;;;;;;;;4935030;29;20051;-82
2021/08/10 06:30:27;;;;;;;9.95;3.78;;;;;;;;;;4934801;29;20147;-82
2021/08/10 06:32:55;;;;;;;6.60;3.20;;;;;;;;;;4914981;29;20051;-82
2021/08/10 06:35:22;;;;;;;8.63;3.08;;;;;;;;;;4927841;29;20084;-82
2021/08/10 06:37:49;;;;;;;6.95;3.13;;;;;;;;;;4917366;29;20080;-82
2021/08/10 06:40:21;;;;;;;9.82;3.05;;;;;;;;;;4899643;29;20575;-82
2021/08/10 06:42:48;;;;;;;16.25;3.60;;;;;;;;;;4911097;29;20130;-83
2021/08/10 06:45:16;;;;;;;9.15;6.25;;;;;;;;;;4950064;29;20079;-82
2021/08/10 06:47:43;;;;;;;7.53;3.15;;;;;;;;;;4934004;29;20135;-82
2021/08/10 06:50:11;;;;;;;7.10;3.33;;;;;;;;;;4934758;29;20118;-83
2021/08/10 06:52:38;;;;;;;9.13;3.00;;;;;;;;;;4934241;29;20098;-82
2021/08/10 06:55:05;;;;;;;8.50;3.25;;;;;;;;;;4934521;29;20094;-82
2021/08/10 06:57:32;;;;;;;11.75;3.25;;;;;;;;;;4922939;29;20490;-82
2021/08/10 07:00:00;;;;;;;7.43;3.38;;;;;;;;;;4936528;28;20047;-83
2021/08/10 07:02:27;;;;;;;5.55;3.30;;;;;;;;;;4918130;29;20142;-83
2021/08/10 07:04:54;;;;;;;10.00;3.50;;;;;;;;;;4915899;29;20130;-82
2021/08/10 07:07:21;;;;;;;8.48;3.22;;;;;;;;;;4927585;29;20070;-82
2021/08/10 07:09:51;;;;;;;8.40;3.40;;;;;;;;;;4917036;29;20059;-81
2021/08/10 07:12:20;;;;;;;6.03;2.95;;;;;;;;;;4927616;29;20047;-81
2021/08/10 07:14:47;;;;;;;7.18;3.20;;;;;;;;;;4918671;29;20090;-81
2021/08/10 07:17:14;;;;;;;9.50;3.45;;;;;;;;;;4934862;29;20094;-81
2021/08/10 07:19:41;;;;;;;8.70;3.65;;;;;;;;;;4912528;29;20079;-82
2021/08/10 07:22:10;;;;;;;12.05;3.67;;;;;;;;;;4948630;29;20580;-82
2021/08/10 07:24:58;;;;;;;15.40;3.47;;;;;;;;;;4932941;29;20476;-84
2021/08/10 07:27:25;;;;;;;10.30;3.30;;;;;;;;;;4948834;29;20043;-83
2021/08/10 07:29:53;;;;;;;9.85;4.03;;;;;;;;;;4934121;29;20789;-83
2021/08/10 07:32:22;;;;;;;10.95;4.05;;;;;;;;;;4913879;29;20091;-85
2021/08/10 07:34:50;;;;;;;10.68;4.18;;;;;;;;;;4917782;29;20130;-86
2021/08/10 07:37:17;;;;;;;13.52;4.65;;;;;;;;;;4933269;29;20148;-86
2021/08/10 07:39:44;;;;;;;10.70;4.70;;;;;;;;;;4933287;29;20580;-87
2021/08/10 07:42:12;;;;;;;12.05;4.90;;;;;;;;;;4918113;29;20074;-87
2021/08/10 07:44:43;;;;;;;12.00;4.82;;;;;;;;;;4916747;29;20513;-87
2021/08/10 07:47:10;;;;;;;10.80;4.88;;;;;;;;;;4935167;29;20076;-86
2021/08/10 07:49:37;;;;;;;9.90;4.53;;;;;;;;;;4928380;29;20079;-86
2021/08/10 07:52:06;;;;;;;14.43;5.20;;;;;;;;;;4914259;29;20111;-87
2021/08/10 07:54:33;;;;;;;11.70;4.65;;;;;;;;;;4914339;29;20138;-87
2021/08/10 07:57:00;;;;;;;13.23;5.03;;;;;;;;;;4918431;29;20516;-87
2021/08/10 07:59:27;;;;;;;16.65;4.85;;;;;;;;;;4917564;29;20142;-86
2021/08/10 08:01:55;;;;;;;11.68;5.30;;;;;;;;;;4909365;29;20091;-87
2021/08/10 08:04:23;;;;;;;8.50;4.93;;;;;;;;;;4934276;29;20059;-86
2021/08/10 08:06:50;;;;;;;13.88;5.13;;;;;;;;;;4921552;29;20071;-86
2021/08/10 08:09:17;;;;;;;12.07;5.30;;;;;;;;;;4934754;29;20056;-88
2021/08/10 08:11:46;;;;;;;15.27;6.47;;;;;;;;;;4919605;29;20044;-87
2021/08/10 08:14:16;;;;;;;13.60;5.75;;;;;;;;;;4914154;29;20143;-87
2021/08/10 08:16:43;;;;;;;9.85;5.38;;;;;;;;;;4925547;29;20134;-88
2021/08/10 08:19:19;;;;;;;17.02;5.53;;;;;;;;;;4926188;29;20535;-88
2021/08/10 08:21:46;;;;;;;16.35;5.65;;;;;;;;;;4921626;29;20055;-88
2021/08/10 08:24:13;;;;;;;11.00;4.93;;;;;;;;;;4938345;29;20485;-87
2021/08/10 08:26:41;;;;;;;10.23;5.25;;;;;;;;;;4938976;29;20135;-88
2021/08/10 08:29:08;;;;;;;9.48;5.47;;;;;;;;;;4920745;29;20701;-88
2021/08/10 08:31:35;;;;;;;8.82;4.68;;;;;;;;;;4920582;29;20138;-87
2021/08/10 08:34:03;;;;;;;12.38;5.05;;;;;;;;;;4920616;29;20102;-86
2021/08/10 08:36:31;;;;;;;11.02;5.45;;;;;;;;;;4937820;29;20053;-85
2021/08/10 08:38:58;;;;;;;10.85;5.68;;;;;;;;;;4937871;29;20772;-87
2021/08/10 08:41:26;;;;;;;14.00;5.50;;;;;;;;;;4938096;29;20537;-87
2021/08/10 08:43:58;;;;;;;12.95;5.28;;;;;;;;;;4932194;29;20086;-87
2021/08/10 08:46:25;;;;;;;24.55;6.50;;;;;;;;;;4952874;29;20052;-86
2021/08/10 08:48:53;;;;;;;10.70;5.57;;;;;;;;;;4949995;29;20055;-86
2021/08/10 08:51:23;;;;;;;13.57;5.85;;;;;;;;;;4926568;29;20088;-86
2021/08/10 08:53:56;;;;;;;16.50;6.10;;;;;;;;;;4919230;29;20512;-87
2021/08/10 08:56:24;;;;;;;14.65;6.60;;;;;;;;;;4920193;29;20087;-89
2021/08/10 08:58:52;;;;;;;13.38;6.65;;;;;;;;;;4936089;29;20087;-83
2021/08/10 09:01:19;;;;;;;9.70;5.80;;;;;;;;;;4938028;29;20508;-88
2021/08/10 09:03:49;;;;;;;11.48;5.93;;;;;;;;;;4921633;29;20569;-90
2021/08/10 09:06:31;;;;;;;10.38;5.85;;;;;;;;;;4921754;29;20051;-90
2021/08/10 09:09:22;;;;;;;10.95;5.45;;;;;;;;;;4935498;29;20501;-88
2021/08/10 09:11:57;;;;;;;10.32;5.80;;;;;;;;;;4915821;29;20079;-87
2021/08/10 09:14:55;;;;;;;13.35;5.70;;;;;;;;;;4921434;29;20083;-89
2021/08/10 09:17:24;;;;;;;9.48;4.82;;;;;;;;;;4910733;29;20492;-88
2021/08/10 09:19:58;;;;;;;10.52;4.82;;;;;;;;;;4950790;29;20055;-88
2021/08/10 09:22:26;;;;;;;8.30;4.35;;;;;;;;;;4936303;29;20083;-88
2021/08/10 09:25:17;;;;;;;8.25;4.07;;;;;;;;;;4919026;29;20139;-89
2021/08/10 09:27:44;;;;;;;7.68;4.28;;;;;;;;;;4912151;29;20136;-89
2021/08/10 09:30:12;;;;;;;7.53;4.50;;;;;;;;;;4935606;29;20727;-89
2021/08/10 09:32:55;;;;;;;9.43;4.18;;;;;;;;;;4930807;29;20055;-89
2021/08/10 09:35:25;;;;;;;10.82;4.35;;;;;;;;;;4919478;29;20098;-88
2021/08/10 09:38:05;;;;;;;7.55;4.22;;;;;;;;;;4934547;29;20106;-93
2021/08/10 09:40:33;;;;;;;7.03;3.65;;;;;;;;;;4931095;29;20150;-91
2021/08/10 09:43:40;;;;;;;8.95;3.85;;;;;;;;;;4920849;29;20040;-90
2021/08/10 09:46:14;;;;;;;8.77;3.95;;;;;;;;;;4857766;29;20085;-87
2021/08/10 09:49:02;;;;;;;8.23;3.85;;;;;;;;;;4857929;29;20100;-89
2021/08/10 09:51:31;;;;;;;12.20;4.05;;;;;;;;;;4911116;29;20154;-89
2021/08/10 09:53:59;;;;;;;7.95;3.50;;;;;;;;;;4950622;29;20151;-87
2021/08/10 09:56:42;;;;;;;7.63;3.38;;;;;;;;;;4922816;29;20105;-88
2021/08/10 09:59:16;;;;;;;12.18;3.35;;;;;;;;;;4952607;28;20059;-88
2021/08/10 10:01:44;;;;;;;10.13;4.15;;;;;;;;;;4944064;29;22014;-85
2021/08/10 10:04:17;;;;;;;10.32;3.60;;;;;;;;;;4933681;29;20055;-86
2021/08/10 10:06:45;;;;;;;8.23;3.30;;;;;;;;;;4918912;29;20076;-87
2021/08/10 10:09:13;;;;;;;10.02;4.13;;;;;;;;;;4912350;29;20060;-87
2021/08/10 10:11:44;;;;;;;10.23;4.03;;;;;;;;;;4913122;29;20075;-88
2021/08/10 10:14:12;;;;;;;7.15;3.63;;;;;;;;;;4917917;29;20138;-87
2021/08/10 10:16:42;;;;;;;9.20;3.78;;;;;;;;;;4918066;29;20056;-87
2021/08/10 10:19:10;;;;;;;6.00;3.80;;;;;;;;;;4909845;29;20989;-86
2021/08/10 10:21:42;;;;;;;9.05;3.78;;;;;;;;;;4944178;28;20079;-86
2021/08/10 10:24:10;;;;;;;8.40;4.18;;;;;;;;;;4916825;29;20086;-85
2021/08/10 10:26:45;;;;;;;9.18;4.05;;;;;;;;;;4934913;29;20148;-85
2021/08/10 10:29:16;;;;;;;8.13;4.50;;;;;;;;;;4928784;29;20051;-85
2021/08/10 10:31:46;;;;;;;8.75;4.13;;;;;;;;;;4932459;29;20135;-83
2021/08/10 10:34:22;;;;;;;13.02;4.60;;;;;;;;;;4933849;29;20063;-83
2021/08/10 10:36:50;;;;;;;5.75;3.97;;;;;;;;;;4915151;29;20062;-83
2021/08/10 10:39:41;;;;;;;7.45;4.63;;;;;;;;;;4923932;29;20159;-89
2021/08/10 10:42:43;;;;;;;15.40;5.28;;;;;;;;;;4922018;29;20687;-87
2021/08/10 10:45:30;;;;;;;11.27;4.00;;;;;;;;;;4931085;29;20075;-88
2021/08/10 10:47:57;;;;;;;8.95;3.90;;;;;;;;;;4935063;29;20421;-88
2021/08/10 10:50:27;;;;;;;10.80;4.47;;;;;;;;;;4910175;29;20103;-89
2021/08/10 10:53:20;;;;;;;12.10;4.50;;;;;;;;;;4949799;29;20134;-87
2021/08/10 10:55:47;;;;;;;7.72;4.68;;;;;;;;;;4914537;29;20114;-89
2021/08/10 10:58:33;;;;;;;9.13;5.72;;;;;;;;;;4918108;29;20083;-85
2021/08/10 11:01:10;;;;;;;11.40;6.15;;;;;;;;;;4933902;29;20043;-84
2021/08/10 11:03:38;;;;;;;12.13;6.13;;;;;;;;;;4910783;29;20044;-87
2021/08/10 11:06:24;;;;;;;11.70;6.50;;;;;;;;;;4933465;29;20430;-85
2021/08/10 11:08:51;;;;;;;9.75;6.70;;;;;;;;;;4929395;29;20803;-85
2021/08/10 11:11:37;;;;;;;13.95;6.68;;;;;;;;;;4931125;29;20082;-85
2021/08/10 11:14:05;;;;;;;11.07;7.10;;;;;;;;;;4913928;29;20048;-85
2021/08/10 11:16:52;;;;;;;11.63;6.75;;;;;;;;;;4921433;29;20079;-84
2021/08/10 11:19:33;;;;;;;13.48;6.65;;;;;;;;;;4915542;29;20139;-84
2021/08/10 11:22:15;;;;;;;9.60;6.13;;;;;;;;;;4927878;29;20048;-84
2021/08/10 11:25:00;;;;;;;12.45;6.22;;;;;;;;;;4897596;29;20087;-84
2021/08/10 11:27:30;;;;;;;12.18;6.68;;;;;;;;;;4910217;29;20069;-84
2021/08/10 11:29:57;;;;;;;14.68;7.05;;;;;;;;;;4933158;29;20087;-84
2021/08/10 11:32:35;;;;;;;9.73;6.45;;;;;;;;;;4916303;29;20146;-84
2021/08/10 11:35:21;;;;;;;8.60;5.68;;;;;;;;;;4909208;29;20130;-84
2021/08/10 11:38:27;;;;;;;7.40;5.32;;;;;;;;;;4916143;29;20056;-84
2021/08/10 11:40:54;;;;;;;11.43;5.50;;;;;;;;;;4866845;29;20136;-84
2021/08/10 11:43:22;;;;;;;11.73;5.70;;;;;;;;;;4855688;29;20077;-84
2021/08/10 11:45:50;;;;;;;12.18;5.70;;;;;;;;;;4893478;29;20054;-83
2021/08/10 11:48:22;;;;;;;10.20;5.55;;;;;;;;;;4933574;29;20610;-84
2021/08/10 11:50:50;;;;;;;9.18;5.68;;;;;;;;;;4915902;29;20130;-84
2021/08/10 11:53:31;;;;;;;7.78;5.18;;;;;;;;;;4916797;29;20130;-84
2021/08/10 11:55:58;;;;;;;12.10;6.40;;;;;;;;;;4904187;29;20086;-83
2021/08/10 11:58:43;;;;;;;9.80;6.03;;;;;;;;;;4920639;29;20832;-84
2021/08/10 12:01:10;;;;;;;11.52;5.85;;;;;;;;;;4931590;29;20079;-84
2021/08/10 12:03:38;;;;;;;9.95;6.47;;;;;;;;;;4927159;29;20052;-84
2021/08/10 12:06:06;;;;;;;9.02;5.55;;;;;;;;;;4925996;29;20054;-83
2021/08/10 12:08:42;;;;;;;11.45;6.10;;;;;;;;;;4932292;29;20606;-83
2021/08/10 12:11:10;;;;;;;15.73;6.28;;;;;;;;;;4933949;29;20532;-84
2021/08/10 12:13:38;;;;;;;10.68;5.80;;;;;;;;;;4933476;29;20063;-84
2021/08/10 12:16:10;;;;;;;10.80;5.32;;;;;;;;;;4933251;29;20048;-84
2021/08/10 12:18:48;;;;;;;8.75;5.20;;;;;;;;;;4910070;29;20062;-84
2021/08/10 12:21:16;;;;;;;11.15;5.40;;;;;;;;;;4909790;29;20088;-84
2021/08/10 12:23:51;;;;;;;9.38;5.10;;;;;;;;;;4932652;29;20123;-84
2021/08/10 12:26:19;;;;;;;8.63;5.18;;;;;;;;;;4916034;29;20123;-84
2021/08/10 12:28:53;;;;;;;11.48;5.45;;;;;;;;;;4907805;29;20147;-84
2021/08/10 12:31:26;;;;;;;10.52;4.78;;;;;;;;;;4928047;29;20106;-84
2021/08/10 12:33:54;;;;;;;8.32;5.30;;;;;;;;;;4924379;29;20047;-84
2021/08/10 12:36:21;;;;;;;6.93;4.30;;;;;;;;;;4932133;29;20134;-83
2021/08/10 12:39:01;;;;;;;13.07;4.90;;;;;;;;;;4932694;29;20135;-84
2021/08/10 12:41:30;;;;;;;10.13;4.00;;;;;;;;;;4913001;29;20466;-84
2021/08/10 12:43:57;;;;;;;13.95;6.28;;;;;;;;;;4897082;29;20060;-84
2021/08/10 12:46:27;;;;;;;8.52;4.70;;;;;;;;;;4940172;29;20131;-84
2021/08/10 12:49:04;;;;;;;11.02;5.03;;;;;;;;;;4920836;29;20127;-84
2021/08/10 12:51:51;;;;;;;9.57;4.80;;;;;;;;;;4917619;29;20127;-84
2021/08/10 12:54:18;;;;;;;8.77;4.82;;;;;;;;;;4923818;29;20080;-84
2021/08/10 12:56:45;;;;;;;8.18;4.20;;;;;;;;;;4928893;29;20171;-84
2021/08/10 12:59:12;;;;;;;8.57;4.28;;;;;;;;;;4898175;29;20135;-84
2021/08/10 13:01:42;;;;;;;10.30;4.63;;;;;;;;;;4933991;29;20047;-84
2021/08/10 13:04:10;;;;;;;7.85;4.47;;;;;;;;;;4934777;29;20060;-84
2021/08/10 13:06:38;;;;;;;9.85;4.40;;;;;;;;;;4922952;29;20092;-84
2021/08/10 13:09:07;;;;;;;7.65;4.47;;;;;;;;;;4926790;29;20109;-84
2021/08/10 13:11:35;;;;;;;8.50;4.38;;;;;;;;;;4935525;29;20237;-84
2021/08/10 13:14:06;;;;;;;12.88;4.65;;;;;;;;;;4930458;29;20828;-84
2021/08/10 13:16:42;;;;;;;11.35;5.15;;;;;;;;;;4930813;29;20052;-84
2021/08/10 13:19:10;;;;;;;8.93;4.15;;;;;;;;;;4916112;29;20054;-84
2021/08/10 13:21:48;;;;;;;9.00;4.38;;;;;;;;;;4928512;29;20098;-84
2021/08/10 13:24:18;;;;;;;10.77;4.22;;;;;;;;;;4936226;29;19966;-84
2021/08/10 13:26:49;;;;;;;10.90;4.82;;;;;;;;;;4925917;29;20076;-84
2021/08/10 13:29:34;;;;;;;10.48;5.00;;;;;;;;;;4935983;29;20044;-84
2021/08/10 13:32:01;;;;;;;7.82;4.47;;;;;;;;;;4928205;29;20048;-84
2021/08/10 13:34:42;;;;;;;10.40;4.82;;;;;;;;;;4909624;29;20509;-84
2021/08/10 13:37:09;;;;;;;8.38;4.65;;;;;;;;;;4918883;29;20130;-84
2021/08/10 13:39:39;;;;;;;10.30;4.35;;;;;;;;;;4932586;29;20131;-84
2021/08/10 13:42:06;;;;;;;11.00;4.53;;;;;;;;;;4922945;29;20130;-83
2021/08/10 13:44:33;;;;;;;9.40;4.05;;;;;;;;;;4921498;29;20138;-84
2021/08/10 13:47:00;;;;;;;8.98;4.82;;;;;;;;;;4930471;29;20058;-84
2021/08/10 13:49:28;;;;;;;9.35;5.10;;;;;;;;;;4935136;29;20551;-84
2021/08/10 13:51:55;;;;;;;10.05;4.80;;;;;;;;;;4935547;29;20059;-84
2021/08/10 13:54:22;;;;;;;8.00;4.35;;;;;;;;;;4921096;29;20715;-83
2021/08/10 13:56:50;;;;;;;9.60;4.72;;;;;;;;;;4926495;29;20130;-83
2021/08/10 13:59:17;;;;;;;10.23;5.32;;;;;;;;;;4931096;29;20543;-85
2021/08/10 14:01:46;;;;;;;13.13;5.97;;;;;;;;;;4915627;29;20139;-85
2021/08/10 14:04:14;;;;;;;14.02;6.25;;;;;;;;;;4914079;29;20051;-84
2021/08/10 14:06:41;;;;;;;10.77;5.82;;;;;;;;;;4932849;29;20691;-86
2021/08/10 14:09:08;;;;;;;10.65;5.07;;;;;;;;;;4922089;29;20141;-84
2021/08/10 14:11:36;;;;;;;12.50;5.88;;;;;;;;;;4922855;29;20393;-85
2021/08/10 14:14:03;;;;;;;9.98;5.72;;;;;;;;;;4912035;29;20131;-85
2021/08/10 14:16:30;;;;;;;17.98;6.97;;;;;;;;;;4915905;29;20143;-85
2021/08/10 14:18:58;;;;;;;14.43;6.80;;;;;;;;;;4912674;29;20487;-85
2021/08/10 14:21:25;;;;;;;12.18;5.85;;;;;;;;;;4913887;29;20142;-85
2021/08/10 14:23:52;;;;;;;12.43;6.00;;;;;;;;;;4918967;29;20150;-86
2021/08/10 14:26:26;;;;;;;10.75;5.80;;;;;;;;;;4926378;29;20086;-85
2021/08/10 14:28:53;;;;;;;14.13;6.10;;;;;;;;;;4914968;29;20493;-82
2021/08/10 14:31:20;;;;;;;14.65;6.65;;;;;;;;;;4921803;29;20051;-82
2021/08/10 14:33:48;;;;;;;21.20;5.82;;;;;;;;;;4933773;29;20052;-81
2021/08/10 14:36:15;;;;;;;16.52;6.13;;;;;;;;;;4911674;29;20087;-83
2021/08/10 14:38:43;;;;;;;14.32;5.50;;;;;;;;;;4917069;29;20087;-82
2021/08/10 14:41:10;;;;;;;14.90;4.85;;;;;;;;;;4916339;29;20138;-83
2021/08/10 14:43:37;;;;;;;12.18;5.07;;;;;;;;;;4931573;29;20815;-83
2021/08/10 14:46:07;;;;;;;9.55;4.75;;;;;;;;;;4909026;29;20123;-83
2021/08/10 14:48:34;;;;;;;14.02;5.43;;;;;;;;;;4933095;29;20135;-83
2021/08/10 14:51:02;;;;;;;15.00;5.35;;;;;;;;;;4914762;29;20078;-81
2021/08/10 14:53:39;;;;;;;17.10;6.03;;;;;;;;;;4924323;29;20138;-82
2021/08/10 14:56:07;;;;;;;13.38;6.05;;;;;;;;;;4916281;29;20459;-81